Tuesday, November 21, 2017, 10:51 PM EST

KRIC, Richmond International Airport

Location: Sandston, VA, United States Lat: 37.517
Local Time: 10:51 PM EST ( 3:51 GMT) Lon: -77.317
Time Zone: US/Eastern Elev: 167 ft

Show me the last for .
Show Decoded

2017-11-21 21:54 METAR KRIC 220254Z 18003KT 10SM OVC080 12/08 A3006 RMK AO2 SLP182 T01170083
                 58010 =
2017-11-21 20:54 METAR KRIC 220154Z 19004KT 10SM SCT080 OVC300 11/07 A3007 RMK AO2 SLP189
                 T01110072 =
2017-11-21 19:54 METAR KRIC 220054Z 18005KT 10SM OVC300 11/07 A3008 RMK AO2 SLP193 T01110067 =
2017-11-21 18:54 METAR KRIC 212354Z 18005KT 10SM OVC300 12/07 A3008 RMK AO2 SLP193 T01170067
                 10167 20117 53004 =
2017-11-21 17:54 METAR KRIC 212254Z 17007KT 10SM BKN300 14/07 A3007 RMK AO2 SLP188 T01390067 =
2017-11-21 16:54 METAR KRIC 212154Z 18008KT 10SM BKN300 14/07 A3008 RMK AO2 SLP193 T01440067 =
2017-11-21 15:54 METAR KRIC 212054Z 18010KT 10SM OVC300 16/07 A3007 RMK AO2 SLP189 T01610072
                 56019 =
2017-11-21 14:54 METAR KRIC 211954Z 19007KT 10SM OVC300 16/06 A3009 RMK AO2 SLP194 T01610056 =
2017-11-21 13:54 METAR KRIC 211854Z 18011KT 10SM OVC300 17/04 A3010 RMK AO2 SLP196 T01670044 =
2017-11-21 12:54 METAR KRIC 211754Z 18011KT 10SM FEW150 OVC300 16/03 A3013 RMK AO2 SLP207
                 T01560033 10156 20017 58028 =
2017-11-21 11:54 METAR KRIC 211654Z 20012KT 10SM FEW150 OVC300 15/02 A3016 RMK AO2 SLP218
                 T01500017 =
2017-11-21 10:54 METAR KRIC 211554Z 19012KT 10SM FEW150 OVC300 13/M01 A3020 RMK AO2 SLP231
                 T01281006 =
2017-11-21 09:54 METAR KRIC 211454Z 19010KT 10SM BKN300 10/M01 A3021 RMK AO2 SLP237 T01001006
                 50000 =
2017-11-21 08:54 METAR KRIC 211354Z 19007KT 10SM BKN300 07/01 A3022 RMK AO2 SLP237 T00670006 =
2017-11-21 07:54 METAR KRIC 211254Z 19005KT 10SM BKN300 03/M01 A3022 RMK AO2 SLP239 T00281006 =
2017-11-21 06:54 METAR KRIC 211154Z 19005KT 10SM BKN300 02/M02 A3021 RMK AO2 SLP236 T00171022
                 10033 20011 53005 =
2017-11-21 05:54 METAR KRIC 211054Z 20009KT 10SM BKN300 01/M02 A3020 RMK AO2 SLP233 T00111017 =
2017-11-21 04:54 METAR KRIC 210954Z 20006KT 10SM BKN300 02/M02 A3020 RMK AO2 SLP231 T00171022 =
2017-11-21 03:54 METAR KRIC 210854Z 20006KT 10SM BKN300 02/M02 A3020 RMK AO2 SLP231 T00171022
                 58008 =
2017-11-21 02:54 METAR KRIC 210754Z 19005KT 10SM BKN300 02/M02 A3021 RMK AO2 SLP236 T00221017 =
2017-11-21 01:54 METAR KRIC 210654Z 21006KT 10SM BKN300 03/M02 A3022 RMK AO2 SLP237 T00281022 =
2017-11-21 00:54 METAR KRIC 210554Z 19004KT 10SM BKN300 03/M02 A3022 RMK AO2 SLP240 T00281017
                 10056 20017 50000 =
2017-11-20 23:54 METAR KRIC 210454Z 19005KT 10SM SCT300 02/M02 A3023 RMK AO2 SLP241 T00171017
                 401610006 =
2017-11-20 22:54 METAR KRIC 210354Z 20005KT 10SM SCT300 02/M02 A3023 RMK AO2 SLP241 T00171017 =

Support USWX by starting your Amazon purchase here.